createdAt,value
2018-05-11T00:00:58.168Z,17.32
2018-05-11T00:03:26.491Z,19.58
2018-05-11T00:05:54.796Z,19.54
2018-05-11T00:08:23.115Z,19.82
2018-05-11T00:10:51.412Z,21.98
2018-05-11T00:13:19.742Z,18.70
2018-05-11T00:15:48.055Z,20.82
2018-05-11T00:18:16.395Z,19.56
2018-05-11T00:20:44.709Z,20.70
2018-05-11T00:23:13.039Z,17.26
2018-05-11T00:25:41.343Z,17.74
2018-05-11T00:28:09.670Z,18.64
2018-05-11T00:30:37.975Z,20.96
2018-05-11T00:33:06.304Z,21.42
2018-05-11T00:35:34.606Z,21.06
2018-05-11T00:38:02.931Z,20.40
2018-05-11T00:40:31.231Z,26.76
2018-05-11T00:42:59.560Z,25.68
2018-05-11T00:45:27.863Z,31.32
2018-05-11T00:47:56.187Z,19.82
2018-05-11T00:50:24.496Z,25.86
2018-05-11T00:52:52.818Z,28.70
2018-05-11T00:55:33.063Z,23.04
2018-05-11T00:58:01.395Z,21.42
2018-05-11T01:00:29.700Z,17.76
2018-05-11T01:02:58.027Z,20.46
2018-05-11T01:05:25.564Z,17.10
2018-05-11T01:07:53.892Z,21.62
2018-05-11T01:10:22.196Z,19.54
2018-05-11T01:12:50.542Z,19.80
2018-05-11T01:15:18.867Z,18.92
2018-05-11T01:17:47.163Z,18.02
2018-05-11T01:20:15.491Z,22.42
2018-05-11T01:22:43.795Z,21.64
2018-05-11T01:25:12.126Z,21.02
2018-05-11T01:27:40.434Z,21.20
2018-05-11T01:30:07.996Z,20.92
2018-05-11T01:32:36.303Z,18.68
2018-05-11T01:35:04.643Z,19.40
2018-05-11T01:37:32.950Z,22.74
2018-05-11T01:40:01.287Z,20.66
2018-05-11T01:42:29.593Z,28.22
2018-05-11T01:44:58.779Z,38.50
2018-05-11T01:47:27.086Z,26.84
2018-05-11T01:49:55.410Z,27.22
2018-05-11T01:52:23.707Z,45.78
2018-05-11T01:54:52.019Z,24.92
2018-05-11T01:57:20.328Z,43.28
2018-05-11T01:59:48.659Z,29.88
2018-05-11T02:02:16.193Z,26.62
2018-05-11T02:04:44.513Z,27.78
2018-05-11T02:07:12.806Z,25.18
2018-05-11T02:09:41.122Z,22.76
2018-05-11T02:12:09.423Z,21.86
2018-05-11T02:14:37.757Z,20.08
2018-05-11T02:17:06.059Z,31.30
2018-05-11T02:19:34.382Z,22.06
2018-05-11T02:22:02.684Z,26.70
2018-05-11T02:24:31.016Z,19.40
2018-05-11T02:26:59.310Z,22.84
2018-05-11T02:29:27.627Z,21.56
2018-05-11T02:31:55.939Z,21.28
2018-05-11T02:34:24.291Z,19.26
2018-05-11T02:36:52.595Z,21.74
2018-05-11T02:39:20.921Z,20.18
2018-05-11T02:41:49.222Z,21.84
2018-05-11T02:44:17.547Z,20.90
2018-05-11T02:46:45.852Z,18.56
2018-05-11T02:49:14.179Z,20.40
2018-05-11T02:51:42.479Z,22.36
2018-05-11T02:54:10.790Z,19.94
2018-05-11T02:56:39.095Z,22.60
2018-05-11T02:59:06.635Z,19.22
2018-05-11T03:01:34.932Z,19.10
2018-05-11T03:04:03.255Z,22.80
2018-05-11T03:06:31.555Z,20.06
2018-05-11T03:08:59.882Z,18.88
2018-05-11T03:11:28.179Z,21.16
2018-05-11T03:13:56.506Z,16.84
2018-05-11T03:16:24.816Z,20.92
2018-05-11T03:18:53.118Z,17.98
2018-05-11T03:21:21.448Z,16.28
2018-05-11T03:23:49.748Z,23.78
2018-05-11T03:26:18.067Z,18.64
2018-05-11T03:28:46.363Z,17.42
2018-05-11T03:31:14.687Z,17.38
2018-05-11T03:33:42.992Z,20.18
2018-05-11T03:36:11.323Z,55.40
2018-05-11T03:38:39.632Z,19.06
2018-05-11T03:41:07.958Z,18.52
2018-05-11T03:43:36.255Z,18.98
2018-05-11T03:46:04.570Z,16.30
2018-05-11T03:48:32.871Z,17.66
2018-05-11T03:51:01.240Z,23.06
2018-05-11T03:53:29.526Z,16.94
2018-05-11T03:55:57.851Z,29.96
2018-05-11T03:58:26.151Z,19.56
2018-05-11T04:00:54.475Z,19.30
2018-05-11T04:03:48.455Z,19.32
2018-05-11T04:06:28.606Z,19.14
2018-05-11T04:08:56.902Z,17.40
2018-05-11T04:11:25.229Z,17.02
2018-05-11T04:13:53.523Z,21.68
2018-05-11T04:16:21.836Z,16.12
2018-05-11T04:18:50.135Z,18.34
2018-05-11T04:21:18.450Z,23.60
2018-05-11T04:23:46.748Z,17.20
2018-05-11T04:26:15.066Z,18.02
2018-05-11T04:28:43.367Z,19.02
2018-05-11T04:31:11.691Z,17.88
2018-05-11T04:33:40.007Z,16.48
2018-05-11T04:36:08.339Z,15.06
2018-05-11T04:38:36.635Z,15.24
2018-05-11T04:41:04.966Z,16.68
2018-05-11T04:43:33.271Z,18.72
2018-05-11T04:46:01.591Z,15.74
2018-05-11T04:48:29.890Z,19.46
2018-05-11T04:50:58.211Z,20.48
2018-05-11T04:53:26.519Z,19.94
2018-05-11T04:55:54.856Z,17.94
2018-05-11T04:58:23.151Z,19.62
2018-05-11T05:00:51.472Z,18.58
2018-05-11T05:03:19.768Z,18.24
2018-05-11T05:05:48.087Z,18.14
2018-05-11T05:08:16.383Z,17.98
2018-05-11T05:10:44.710Z,16.28
2018-05-11T05:13:13.002Z,17.72
2018-05-11T05:15:41.327Z,19.42
2018-05-11T05:18:09.623Z,16.46
2018-05-11T05:20:37.943Z,20.14
2018-05-11T05:23:06.250Z,17.36
2018-05-11T05:25:34.571Z,18.64
2018-05-11T05:28:02.874Z,17.34
2018-05-11T05:30:31.271Z,18.10
2018-05-11T05:32:59.605Z,22.78
2018-05-11T05:35:27.937Z,16.20
2018-05-11T05:37:56.252Z,21.64
2018-05-11T05:40:24.575Z,18.94
2018-05-11T05:42:52.878Z,19.22
2018-05-11T05:45:21.179Z,20.76
2018-05-11T05:47:49.499Z,21.50
2018-05-11T05:50:17.796Z,17.54
2018-05-11T05:52:46.119Z,18.76
2018-05-11T05:55:14.423Z,18.92
2018-05-11T05:57:42.751Z,21.56
2018-05-11T06:00:11.047Z,20.36
2018-05-11T06:02:39.381Z,20.68
2018-05-11T06:05:07.682Z,18.38
2018-05-11T06:07:36.009Z,20.08
2018-05-11T06:10:04.306Z,25.72
2018-05-11T06:12:32.624Z,27.82
2018-05-11T06:15:00.931Z,21.20
2018-05-11T06:17:28.512Z,23.26
2018-05-11T06:19:56.820Z,24.04
2018-05-11T06:22:25.144Z,20.60
2018-05-11T06:24:53.473Z,22.52
2018-05-11T06:27:21.864Z,24.26
2018-05-11T06:29:50.107Z,21.20
2018-05-11T06:32:18.448Z,19.84
2018-05-11T06:34:46.744Z,21.92
2018-05-11T06:37:15.071Z,22.98
2018-05-11T06:39:43.371Z,19.38
2018-05-11T06:42:11.692Z,16.60
2018-05-11T06:44:40.006Z,28.56
2018-05-11T06:47:08.343Z,27.64
2018-05-11T06:49:36.648Z,22.20
2018-05-11T06:52:04.967Z,23.14
2018-05-11T06:54:33.272Z,22.74
2018-05-11T06:57:01.594Z,23.86
2018-05-11T06:59:29.158Z,26.42
2018-05-11T07:01:57.482Z,26.04
2018-05-11T07:04:25.790Z,23.36
2018-05-11T07:06:54.110Z,27.30
2018-05-11T07:09:22.415Z,23.56
2018-05-11T07:11:50.746Z,27.12
2018-05-11T07:14:19.044Z,25.84
2018-05-11T07:16:47.376Z,27.94
2018-05-11T07:19:15.677Z,31.00
2018-05-11T07:21:44.003Z,27.56
2018-05-11T07:24:12.308Z,28.06
2018-05-11T07:26:40.628Z,30.32
2018-05-11T07:29:08.929Z,28.12
2018-05-11T07:31:37.255Z,25.22
2018-05-11T07:34:05.563Z,30.06
2018-05-11T07:36:33.904Z,24.68
2018-05-11T07:39:02.200Z,25.62
2018-05-11T07:41:30.531Z,28.54
2018-05-11T07:43:58.827Z,24.10
2018-05-11T07:46:27.147Z,26.68
2018-05-11T07:48:55.463Z,26.60
2018-05-11T07:51:23.770Z,25.82
2018-05-11T07:53:52.091Z,24.94
2018-05-11T07:56:20.383Z,24.00
2018-05-11T07:58:48.703Z,21.64
2018-05-11T08:01:16.239Z,22.36
2018-05-11T08:03:44.556Z,22.30
2018-05-11T08:06:12.851Z,22.28
2018-05-11T08:08:41.168Z,22.14
2018-05-11T08:11:09.472Z,24.64
2018-05-11T08:13:37.795Z,24.78
2018-05-11T08:16:06.085Z,22.24
2018-05-11T08:18:34.407Z,18.76
2018-05-11T08:21:02.703Z,21.28
2018-05-11T08:23:31.032Z,21.26
2018-05-11T08:25:59.331Z,19.34
2018-05-11T08:28:27.650Z,19.60
2018-05-11T08:30:55.951Z,17.70
2018-05-11T08:33:24.279Z,16.96
2018-05-11T08:35:52.643Z,16.64
2018-05-11T08:38:20.906Z,15.74
2018-05-11T08:40:48.435Z,15.72
2018-05-11T08:43:16.763Z,15.70
2018-05-11T08:45:45.059Z,15.64
2018-05-11T08:48:13.380Z,16.26
2018-05-11T08:50:41.679Z,16.56
2018-05-11T08:53:10.003Z,15.22
2018-05-11T08:55:38.299Z,18.36
2018-05-11T08:58:06.619Z,14.76
2018-05-11T09:00:34.910Z,18.82
2018-05-11T09:03:03.297Z,19.98
2018-05-11T09:05:30.774Z,15.46
2018-05-11T09:07:58.323Z,17.56
2018-05-11T09:10:26.640Z,14.80
2018-05-11T09:12:54.958Z,17.40
2018-05-11T09:15:23.254Z,14.94
2018-05-11T09:17:51.575Z,13.10
2018-05-11T09:20:19.873Z,24.36
2018-05-11T09:22:48.213Z,19.66
2018-05-11T09:25:16.661Z,20.20
2018-05-11T09:27:44.978Z,19.40
2018-05-11T09:30:13.266Z,13.86
2018-05-11T09:32:41.585Z,16.22
2018-05-11T09:35:09.878Z,15.70
2018-05-11T09:37:38.198Z,16.00
2018-05-11T09:40:06.491Z,14.92
2018-05-11T09:42:34.787Z,16.50
2018-05-11T09:45:03.102Z,18.10
2018-05-11T09:47:31.398Z,13.02
2018-05-11T09:49:59.705Z,13.08
2018-05-11T09:52:28.002Z,14.70
2018-05-11T09:54:55.552Z,13.60
2018-05-11T09:57:23.843Z,13.36
2018-05-11T09:59:52.158Z,14.70
2018-05-11T10:02:20.454Z,10.68
2018-05-11T10:04:48.766Z,15.42
2018-05-11T10:07:17.062Z,11.60
2018-05-11T10:09:45.387Z,12.38
2018-05-11T10:12:13.689Z,12.86
2018-05-11T10:14:42.016Z,14.32
2018-05-11T10:17:10.315Z,11.76
2018-05-11T10:19:38.643Z,12.52
2018-05-11T10:22:06.934Z,11.86
2018-05-11T10:24:35.248Z,12.22
2018-05-11T10:27:03.542Z,12.94
2018-05-11T10:29:31.868Z,11.12
2018-05-11T10:32:00.160Z,11.78
2018-05-11T10:34:28.535Z,9.70
2018-05-11T10:36:56.816Z,10.56
2018-05-11T10:39:25.135Z,11.92
2018-05-11T10:41:53.427Z,10.10
2018-05-11T10:44:21.747Z,12.58
2018-05-11T10:46:50.039Z,9.08
2018-05-11T10:49:18.355Z,9.82
2018-05-11T10:51:46.649Z,11.62
2018-05-11T10:54:14.972Z,12.12
2018-05-11T10:56:43.275Z,10.02
2018-05-11T10:59:10.826Z,9.46
2018-05-11T11:01:39.125Z,9.22
2018-05-11T11:04:07.429Z,8.90
2018-05-11T11:06:35.719Z,11.94
2018-05-11T11:09:04.031Z,10.00
2018-05-11T11:11:32.324Z,7.92
2018-05-11T11:14:00.638Z,9.00
2018-05-11T11:16:28.956Z,7.06
2018-05-11T11:18:57.266Z,9.10
2018-05-11T11:21:25.556Z,10.56
2018-05-11T11:23:53.883Z,8.56
2018-05-11T11:26:22.178Z,9.24
2018-05-11T11:28:50.490Z,9.08
2018-05-11T11:31:18.791Z,10.30
2018-05-11T11:33:47.111Z,8.84
2018-05-11T11:36:15.399Z,8.86
2018-05-11T11:38:43.723Z,10.52
2018-05-11T11:41:12.043Z,9.04
2018-05-11T11:43:40.331Z,7.32
2018-05-11T11:46:07.883Z,8.42
2018-05-11T11:48:36.167Z,5.88
2018-05-11T11:51:04.484Z,6.58
2018-05-11T11:53:32.774Z,6.12
2018-05-11T11:56:01.087Z,5.58
2018-05-11T11:58:29.380Z,6.06
2018-05-11T12:00:57.696Z,10.30
2018-05-11T12:03:25.995Z,5.74
2018-05-11T12:05:54.331Z,6.08
2018-05-11T12:08:22.631Z,10.32
2018-05-11T12:10:50.948Z,6.26
2018-05-11T12:13:19.250Z,5.42
2018-05-11T12:15:47.671Z,6.40
2018-05-11T12:18:15.886Z,6.72
2018-05-11T12:20:44.208Z,6.76
2018-05-11T12:23:12.504Z,8.42
2018-05-11T12:25:40.046Z,8.28
2018-05-11T12:28:08.343Z,6.64
2018-05-11T12:30:36.751Z,5.84
2018-05-11T12:33:04.971Z,6.40
2018-05-11T12:35:33.291Z,10.20
2018-05-11T12:38:01.576Z,5.80
2018-05-11T12:40:29.893Z,6.62
2018-05-11T12:42:58.182Z,6.98
2018-05-11T12:45:26.531Z,7.70
2018-05-11T12:47:54.835Z,6.38
2018-05-11T12:50:23.155Z,7.12
2018-05-11T12:52:51.483Z,6.68
2018-05-11T12:55:19.777Z,6.62
2018-05-11T12:57:48.073Z,5.82
2018-05-11T13:00:16.397Z,5.64
2018-05-11T13:02:44.691Z,5.88
2018-05-11T13:05:13.008Z,6.32
2018-05-11T13:07:41.300Z,5.68
2018-05-11T13:10:09.616Z,8.52
2018-05-11T13:12:37.915Z,7.70
2018-05-11T13:15:06.227Z,5.96
2018-05-11T13:17:34.524Z,6.90
2018-05-11T13:20:02.831Z,7.60
2018-05-11T13:22:31.123Z,8.84
2018-05-11T13:24:58.671Z,6.68
2018-05-11T13:27:26.187Z,6.34
2018-05-11T13:29:54.511Z,5.34
2018-05-11T13:32:22.794Z,5.50
2018-05-11T13:34:51.110Z,7.80
2018-05-11T13:37:19.398Z,6.96
2018-05-11T13:39:47.687Z,7.58
2018-05-11T13:42:16.002Z,5.02
2018-05-11T13:44:44.289Z,5.74
2018-05-11T13:47:12.606Z,7.64
2018-05-11T13:49:40.904Z,6.04
2018-05-11T13:52:09.228Z,5.92
2018-05-11T13:54:37.518Z,6.98
2018-05-11T13:57:05.826Z,5.12
2018-05-11T13:59:34.111Z,6.68
2018-05-11T14:02:02.437Z,6.78
2018-05-11T14:04:30.792Z,6.56
2018-05-11T14:06:59.071Z,5.60
2018-05-11T14:09:27.359Z,6.06
2018-05-11T14:11:55.673Z,6.20
2018-05-11T14:14:23.987Z,6.78
2018-05-11T14:16:51.531Z,6.16
2018-05-11T14:19:19.822Z,5.94
2018-05-11T14:21:48.135Z,5.56
2018-05-11T14:24:16.427Z,7.72
2018-05-11T14:26:44.738Z,6.08
2018-05-11T14:29:13.026Z,5.26
2018-05-11T14:31:41.340Z,7.24
2018-05-11T14:34:09.630Z,5.08
2018-05-11T14:36:37.944Z,6.14
2018-05-11T14:39:06.237Z,7.44
2018-05-11T14:41:34.555Z,7.20
2018-05-11T14:44:02.846Z,6.00
2018-05-11T14:46:31.171Z,8.42
2018-05-11T14:48:59.463Z,5.24
2018-05-11T14:51:27.780Z,5.94
2018-05-11T14:53:56.082Z,6.54
2018-05-11T14:56:24.399Z,5.56
2018-05-11T14:58:52.699Z,47.72
2018-05-11T15:01:21.019Z,8.76
2018-05-11T15:03:49.315Z,6.20
2018-05-11T15:06:17.635Z,5.60
2018-05-11T15:08:45.937Z,5.20
2018-05-11T15:11:14.251Z,5.24
2018-05-11T15:13:42.539Z,5.66
2018-05-11T15:16:10.845Z,6.22
2018-05-11T15:18:39.141Z,5.24
2018-05-11T15:21:06.683Z,8.16
2018-05-11T15:23:34.972Z,5.34
2018-05-11T15:26:03.287Z,5.68
2018-05-11T15:28:31.583Z,5.74
2018-05-11T15:30:59.946Z,4.94
2018-05-11T15:33:28.235Z,4.64
2018-05-11T15:35:56.543Z,5.62
2018-05-11T15:38:24.851Z,7.70
2018-05-11T15:40:53.156Z,5.88
2018-05-11T15:43:21.472Z,7.74
2018-05-11T15:45:49.759Z,5.72
2018-05-11T15:48:18.071Z,6.14
2018-05-11T15:50:46.367Z,5.64
2018-05-11T15:53:14.678Z,5.58
2018-05-11T15:55:42.970Z,5.50
2018-05-11T15:58:11.279Z,5.78
2018-05-11T16:00:39.572Z,5.20
2018-05-11T16:03:07.892Z,5.10
2018-05-11T16:05:37.117Z,9.44
2018-05-11T16:08:05.442Z,5.34
2018-05-11T16:10:33.734Z,7.18
2018-05-11T16:13:02.057Z,6.62
2018-05-11T16:15:30.358Z,8.98
2018-05-11T16:17:58.675Z,5.72
2018-05-11T16:20:27.067Z,5.92
2018-05-11T16:22:55.306Z,5.48
2018-05-11T16:25:23.599Z,5.98
2018-05-11T16:27:51.907Z,5.24
2018-05-11T16:30:20.190Z,6.04
2018-05-11T16:32:48.503Z,5.22
2018-05-11T16:35:16.790Z,5.44
2018-05-11T16:37:45.107Z,8.08
2018-05-11T16:40:13.406Z,12.20
2018-05-11T16:42:41.728Z,6.82
2018-05-11T16:45:10.019Z,5.72
2018-05-11T16:47:38.363Z,11.16
2018-05-11T16:50:06.676Z,18.60
2018-05-11T16:52:34.989Z,9.92
2018-05-11T16:55:03.305Z,9.62
2018-05-11T16:57:31.627Z,11.32
2018-05-11T16:59:59.921Z,6.54
2018-05-11T17:02:28.799Z,6.20
2018-05-11T17:04:57.100Z,5.36
2018-05-11T17:07:25.419Z,5.88
2018-05-11T17:09:53.726Z,5.42
2018-05-11T17:12:22.052Z,8.12
2018-05-11T17:14:50.340Z,6.88
2018-05-11T17:17:18.655Z,5.32
2018-05-11T17:19:46.947Z,7.00
2018-05-11T17:22:14.495Z,5.96
2018-05-11T17:24:42.787Z,6.50
2018-05-11T17:27:11.099Z,7.68
2018-05-11T17:29:39.393Z,6.62
2018-05-11T17:32:07.722Z,7.46
2018-05-11T17:34:36.007Z,4.96
2018-05-11T17:37:04.295Z,6.66
2018-05-11T17:39:32.618Z,6.48
2018-05-11T17:42:00.907Z,7.16
2018-05-11T17:44:29.228Z,5.54
2018-05-11T17:46:57.527Z,5.30
2018-05-11T17:49:25.844Z,6.86
2018-05-11T17:51:54.146Z,8.78
2018-05-11T17:54:22.467Z,7.28
2018-05-11T17:56:50.753Z,5.22
2018-05-11T17:59:19.068Z,5.90
2018-05-11T18:01:46.600Z,6.56
2018-05-11T18:04:14.910Z,6.48
2018-05-11T18:06:43.268Z,7.32
2018-05-11T18:09:11.539Z,7.42
2018-05-11T18:11:39.068Z,7.80
2018-05-11T18:14:07.402Z,10.74
2018-05-11T18:16:35.691Z,6.54
2018-05-11T18:19:04.102Z,7.14
2018-05-11T18:21:32.320Z,7.00
2018-05-11T18:24:00.640Z,8.00
2018-05-11T18:26:28.927Z,6.36
2018-05-11T18:28:57.246Z,6.08
2018-05-11T18:31:25.539Z,7.70
2018-05-11T18:33:53.852Z,9.20
2018-05-11T18:36:21.371Z,7.84
2018-05-11T18:38:49.687Z,8.62
2018-05-11T18:41:18.001Z,10.20
2018-05-11T18:43:46.311Z,9.74
2018-05-11T18:46:14.599Z,16.90
2018-05-11T18:48:42.138Z,9.78
2018-05-11T18:51:10.443Z,8.52
2018-05-11T18:53:39.229Z,13.32
2018-05-11T18:56:07.082Z,11.48
2018-05-11T18:58:35.396Z,8.08
2018-05-11T19:01:03.693Z,11.96
2018-05-11T19:03:32.016Z,8.26
2018-05-11T19:06:00.332Z,10.74
2018-05-11T19:08:28.647Z,9.48
2018-05-11T19:10:57.831Z,12.46
2018-05-11T19:13:26.145Z,10.12
2018-05-11T19:15:54.591Z,13.50
2018-05-11T19:18:22.911Z,8.70
2018-05-11T19:20:51.218Z,7.62
2018-05-11T19:23:19.550Z,9.46
2018-05-11T19:25:47.096Z,8.12
2018-05-11T19:28:15.418Z,7.84
2018-05-11T19:30:43.715Z,9.64
2018-05-11T19:33:12.034Z,7.42
2018-05-11T19:35:40.351Z,8.24
2018-05-11T19:38:08.667Z,8.32
2018-05-11T19:40:36.987Z,9.22
2018-05-11T19:43:05.271Z,8.04
2018-05-11T19:45:33.592Z,8.78
2018-05-11T19:48:01.886Z,8.70
2018-05-11T19:50:30.234Z,9.92
2018-05-11T19:52:58.527Z,8.86
2018-05-11T19:55:26.854Z,8.90
2018-05-11T19:57:55.154Z,12.36
2018-05-11T20:00:23.504Z,14.42
2018-05-11T20:02:51.794Z,8.84
2018-05-11T20:05:20.106Z,9.64
2018-05-11T20:07:48.399Z,10.32
2018-05-11T20:10:16.743Z,10.40
2018-05-11T20:12:45.050Z,11.86
2018-05-11T20:15:13.383Z,9.48
2018-05-11T20:17:41.700Z,11.24
2018-05-11T20:20:10.014Z,10.26
2018-05-11T20:22:38.317Z,10.08
2018-05-11T20:25:06.634Z,10.10
2018-05-11T20:27:34.166Z,11.60
2018-05-11T20:30:02.483Z,9.56
2018-05-11T20:32:30.800Z,11.76
2018-05-11T20:34:59.111Z,9.26
2018-05-11T20:37:27.417Z,12.80
2018-05-11T20:39:55.746Z,12.08
2018-05-11T20:42:24.046Z,9.02
2018-05-11T20:44:52.372Z,8.94
2018-05-11T20:47:19.898Z,9.90
2018-05-11T20:49:48.219Z,9.58
2018-05-11T20:52:15.758Z,9.80
2018-05-11T20:54:44.078Z,10.40
2018-05-11T20:57:12.370Z,10.36
2018-05-11T20:59:40.694Z,10.92
2018-05-11T21:02:08.991Z,9.92
2018-05-11T21:04:37.311Z,11.66
2018-05-11T21:07:05.606Z,9.08
2018-05-11T21:09:33.922Z,12.14
2018-05-11T21:12:02.218Z,9.28
2018-05-11T21:14:30.642Z,10.86
2018-05-11T21:16:58.083Z,10.70
2018-05-11T21:19:26.406Z,9.86
2018-05-11T21:21:54.698Z,10.22
2018-05-11T21:24:23.021Z,10.64
2018-05-11T21:26:51.319Z,11.92
2018-05-11T21:29:19.620Z,11.06
2018-05-11T21:31:47.943Z,10.86
2018-05-11T21:34:16.245Z,11.62
2018-05-11T21:36:44.575Z,10.58
2018-05-11T21:39:12.871Z,10.62
2018-05-11T21:41:41.195Z,17.60
2018-05-11T21:44:09.491Z,10.72
2018-05-11T21:46:37.814Z,10.10
2018-05-11T21:49:06.112Z,10.14
2018-05-11T21:51:34.430Z,11.00
2018-05-11T21:54:02.736Z,12.80
2018-05-11T21:56:31.058Z,10.68
2018-05-11T21:58:58.613Z,12.54
2018-05-11T22:01:26.939Z,12.24
2018-05-11T22:03:55.231Z,12.20
2018-05-11T22:06:23.558Z,11.36
2018-05-11T22:08:51.859Z,12.74
2018-05-11T22:11:20.179Z,21.88
2018-05-11T22:13:48.487Z,12.58
2018-05-11T22:16:16.811Z,13.38
2018-05-11T22:18:45.111Z,11.14
2018-05-11T22:21:13.434Z,12.02
2018-05-11T22:23:41.732Z,12.82
2018-05-11T22:26:10.058Z,15.54
2018-05-11T22:28:38.367Z,11.66
2018-05-11T22:31:06.686Z,11.68
2018-05-11T22:33:34.978Z,11.36
2018-05-11T22:36:03.299Z,11.60
2018-05-11T22:38:31.595Z,11.36
2018-05-11T22:40:59.918Z,20.92
2018-05-11T22:43:28.216Z,15.94
2018-05-11T22:45:56.541Z,15.34
2018-05-11T22:48:24.843Z,13.18
2018-05-11T22:50:53.167Z,22.84
2018-05-11T22:53:21.471Z,23.76
2018-05-11T22:55:49.801Z,21.84
2018-05-11T22:58:18.110Z,32.68
2018-05-11T23:00:45.666Z,16.36
2018-05-11T23:03:13.976Z,24.34
2018-05-11T23:05:42.290Z,28.70
2018-05-11T23:08:10.591Z,37.40
2018-05-11T23:10:38.907Z,24.26
2018-05-11T23:13:07.210Z,14.50
2018-05-11T23:15:35.532Z,26.58
2018-05-11T23:18:03.076Z,17.50
2018-05-11T23:20:31.399Z,31.02
2018-05-11T23:22:59.695Z,29.22
2018-05-11T23:25:27.997Z,37.02
2018-05-11T23:27:56.371Z,41.96
2018-05-11T23:30:24.671Z,33.30
2018-05-11T23:32:52.996Z,17.66
2018-05-11T23:35:21.286Z,21.84
2018-05-11T23:37:49.616Z,12.20
2018-05-11T23:40:17.911Z,12.04
2018-05-11T23:42:46.235Z,30.56
2018-05-11T23:45:13.775Z,23.16
2018-05-11T23:47:42.094Z,11.60
2018-05-11T23:50:10.387Z,11.94
2018-05-11T23:52:38.719Z,16.04
2018-05-11T23:55:07.025Z,34.54
2018-05-11T23:57:35.346Z,12.68
